createdAt,value
2017-06-24T10:39:04.008Z,60320
2017-06-24T10:40:19.469Z,54880
2017-06-24T10:41:35.058Z,46368
2017-06-24T10:42:50.528Z,46592
2017-06-24T10:44:06.242Z,90976
2017-06-24T10:45:20.348Z,126272
2017-06-24T10:46:35.772Z,119072
2017-06-24T10:47:49.931Z,140096
2017-06-24T10:49:04.235Z,60352
2017-06-24T10:50:19.326Z,36640
2017-06-24T10:51:35.024Z,115168
2017-06-24T10:52:50.555Z,119200
2017-06-24T10:54:06.297Z,116096
2017-06-24T10:55:21.760Z,124992
2017-06-24T10:56:37.413Z,42752
2017-06-24T10:57:52.878Z,27136
2017-06-24T10:59:08.824Z,28032
2017-06-24T11:00:24.274Z,26400
2017-06-24T11:01:39.775Z,20544
2017-06-24T11:02:55.227Z,16480
2017-06-24T11:04:10.900Z,16928
2017-06-24T11:05:26.357Z,74464
2017-06-24T11:06:41.777Z,32672
2017-06-24T11:07:57.185Z,15196
2017-06-24T11:09:12.892Z,131456
2017-06-24T11:10:28.347Z,142688
2017-06-24T11:11:43.772Z,79840
2017-06-24T11:12:59.244Z,122112
2017-06-24T11:14:16.029Z,142560
2017-06-24T11:15:32.271Z,148704
2017-06-24T11:16:48.838Z,132640
2017-06-24T11:18:05.880Z,166976
2017-06-24T11:19:21.594Z,178816
2017-06-24T11:20:36.999Z,136512
2017-06-24T11:21:52.459Z,110176
2017-06-24T11:23:08.109Z,125952
2017-06-24T11:24:23.810Z,136928
2017-06-24T11:25:39.265Z,98848
2017-06-24T11:26:54.752Z,60544
2017-06-24T11:28:10.223Z,51584
2017-06-24T11:29:25.013Z,71840
2017-06-24T11:30:41.519Z,63776
2017-06-24T11:31:57.970Z,104064
2017-06-24T11:33:13.797Z,97600
2017-06-24T11:34:31.046Z,179264
2017-06-24T11:35:48.136Z,48672
2017-06-24T11:37:03.914Z,76640
2017-06-24T11:38:19.381Z,105408
2017-06-24T11:39:35.051Z,154880
2017-06-24T11:40:50.575Z,151744
2017-06-24T11:42:06.090Z,139360
2017-06-24T11:43:21.519Z,157888
2017-06-24T11:44:37.394Z,190240
2017-06-24T11:45:52.864Z,163456
2017-06-24T11:47:08.298Z,108608
2017-06-24T11:48:23.413Z,88480
2017-06-24T11:49:39.146Z,112096
2017-06-24T11:50:54.694Z,134688
2017-06-24T11:52:10.394Z,37088
2017-06-24T11:53:25.883Z,35872
2017-06-24T11:54:41.963Z,59808
2017-06-24T11:55:57.454Z,41824
2017-06-24T11:57:12.923Z,54048
2017-06-24T11:58:28.026Z,66848
2017-06-24T11:59:42.412Z,73664
2017-06-24T12:00:57.946Z,115232
2017-06-24T12:02:13.645Z,123296
2017-06-24T12:03:29.039Z,69344
2017-06-24T12:04:44.832Z,105920
2017-06-24T12:06:13.939Z,62016
2017-06-24T12:07:29.741Z,41536
2017-06-24T12:08:45.192Z,37760
2017-06-24T12:10:00.900Z,46752
2017-06-24T12:11:16.446Z,39328
2017-06-24T12:12:31.939Z,41408
2017-06-24T12:13:47.157Z,46176
2017-06-24T12:15:02.877Z,34464
2017-06-24T12:16:18.339Z,35136
2017-06-24T12:17:33.808Z,32000
2017-06-24T12:18:48.876Z,30624
2017-06-24T12:20:04.561Z,31968
2017-06-24T12:21:20.051Z,31136
2017-06-24T12:22:35.524Z,30496
2017-06-24T12:23:51.043Z,27776
2017-06-24T12:25:06.894Z,23840
2017-06-24T12:26:22.419Z,23424
2017-06-24T12:27:37.803Z,23936
2017-06-24T12:28:53.281Z,24864
2017-06-24T12:30:09.024Z,32256
2017-06-24T12:31:24.096Z,35328
2017-06-24T12:32:39.553Z,32160
2017-06-24T12:33:55.062Z,34848
2017-06-24T12:35:10.766Z,65952
2017-06-24T12:36:26.206Z,44736
2017-06-24T12:37:41.307Z,43904
2017-06-24T12:38:56.844Z,54560
2017-06-24T12:40:12.608Z,47424
2017-06-24T12:41:26.773Z,50624
2017-06-24T12:42:42.253Z,33824
2017-06-24T12:43:56.406Z,28608
2017-06-24T12:45:11.726Z,29824
2017-06-24T12:46:27.437Z,33216
2017-06-24T12:47:42.890Z,36160
2017-06-24T12:48:58.347Z,35328
2017-06-24T12:50:14.078Z,34272
2017-06-24T12:51:29.507Z,36800
2017-06-24T12:52:44.948Z,34656
2017-06-24T12:54:00.428Z,39520
2017-06-24T12:55:16.107Z,38080
2017-06-24T12:56:30.111Z,31808
2017-06-24T12:57:44.253Z,35488
2017-06-24T12:58:59.672Z,35040
2017-06-24T13:00:15.521Z,43744
2017-06-24T13:01:30.942Z,77376
2017-06-24T13:02:46.350Z,66304
2017-06-24T13:04:00.243Z,45856
2017-06-24T13:05:15.985Z,37152
2017-06-24T13:06:31.455Z,37536
2017-06-24T13:07:46.930Z,39936
2017-06-24T13:09:02.381Z,45440
2017-06-24T13:10:18.093Z,48192
2017-06-24T13:11:33.511Z,42816
2017-06-24T13:13:02.705Z,42848
2017-06-24T13:14:18.358Z,49248
2017-06-24T13:15:32.775Z,54816
2017-06-24T13:16:48.329Z,67168
2017-06-24T13:18:03.814Z,48736
2017-06-24T13:19:18.014Z,117120
2017-06-24T13:20:33.647Z,118176
2017-06-24T13:21:49.073Z,38368
2017-06-24T13:23:04.533Z,44512
2017-06-24T13:24:20.200Z,98912
2017-06-24T13:25:36.033Z,100896
2017-06-24T13:26:51.416Z,55040
2017-06-24T13:28:06.890Z,102592
2017-06-24T13:29:21.047Z,31232
2017-06-24T13:30:36.770Z,31840
2017-06-24T13:31:52.187Z,47296
2017-06-24T13:33:06.325Z,28512
2017-06-24T13:34:21.827Z,24352
2017-06-24T13:35:37.528Z,23808
2017-06-24T13:36:53.013Z,23936
2017-06-24T13:38:08.398Z,22688
2017-06-24T13:39:24.050Z,21344
2017-06-24T13:40:39.733Z,19552
2017-06-24T13:41:53.724Z,17888
2017-06-24T13:43:09.177Z,17696
2017-06-24T13:44:24.618Z,18240
2017-06-24T13:45:40.344Z,18176
2017-06-24T13:46:55.791Z,18592
2017-06-24T13:48:11.373Z,18816
2017-06-24T13:49:26.857Z,18400
2017-06-24T13:50:41.387Z,18464
2017-06-24T13:51:56.896Z,19296
2017-06-24T13:53:12.374Z,20416
2017-06-24T13:55:55.948Z,25856
2017-06-24T13:57:11.360Z,27616
2017-06-24T13:58:27.089Z,27904
2017-06-24T13:59:42.556Z,27616
2017-06-24T14:00:58.277Z,25984
2017-06-24T14:02:12.368Z,26400
2017-06-24T14:03:27.798Z,27680
2017-06-24T14:04:43.485Z,28960
2017-06-24T14:05:59.444Z,27040
2017-06-24T14:07:14.851Z,22400
2017-06-24T14:08:30.342Z,21408
2017-06-24T14:09:45.783Z,22496
2017-06-24T14:11:32.189Z,20704
2017-06-24T14:12:47.653Z,18336
2017-06-24T14:14:03.369Z,19008
2017-06-24T14:15:18.850Z,22336
2017-06-24T14:16:34.567Z,20864
2017-06-24T14:17:50.001Z,20000
2017-06-24T14:19:05.124Z,17344
2017-06-24T14:20:20.804Z,14556
2017-06-24T14:21:36.495Z,14588
2017-06-24T14:22:50.580Z,15552
2017-06-24T14:24:04.896Z,17312
2017-06-24T14:25:20.436Z,17408
2017-06-24T14:26:36.299Z,18400
2017-06-24T14:27:51.737Z,21056
2017-06-24T14:29:07.389Z,20640
2017-06-24T14:30:22.924Z,19936
2017-06-24T14:31:38.233Z,19776
2017-06-24T14:32:53.755Z,19712
2017-06-24T14:34:09.199Z,20128
2017-06-24T14:35:24.661Z,20256
2017-06-24T14:36:40.427Z,21888
2017-06-24T14:37:55.883Z,32352
2017-06-24T14:39:09.932Z,38176
2017-06-24T14:40:25.415Z,37984
2017-06-24T14:41:41.132Z,34464
2017-06-24T14:42:56.608Z,29984
2017-06-24T14:44:10.747Z,23712
2017-06-24T14:45:26.178Z,18880
2017-06-24T14:46:41.910Z,16320
2017-06-24T14:47:57.432Z,14716
2017-06-24T14:49:11.589Z,14908
2017-06-24T14:50:27.020Z,15648
2017-06-24T14:51:42.769Z,17792
2017-06-24T14:52:58.326Z,17632
2017-06-24T14:54:13.771Z,16960
2017-06-24T14:55:27.796Z,15712
2017-06-24T14:56:43.647Z,16096
2017-06-24T14:57:59.656Z,15148
2017-06-24T14:59:15.126Z,15008
2017-06-24T15:00:29.242Z,15072
2017-06-24T15:01:44.913Z,14384
2017-06-24T15:03:00.514Z,13268
2017-06-24T15:04:29.577Z,12988
2017-06-24T15:05:44.993Z,14428
2017-06-24T15:07:00.683Z,15324
2017-06-24T15:08:15.725Z,14112
2017-06-24T15:09:31.217Z,12336
2017-06-24T15:10:45.373Z,10968
2017-06-24T15:12:01.315Z,10032
2017-06-24T15:13:16.979Z,8856
2017-06-24T15:14:32.395Z,8280
2017-06-24T15:15:47.813Z,8584
2017-06-24T15:17:03.646Z,8700
2017-06-24T15:18:17.662Z,8772
2017-06-24T15:19:33.135Z,8768
2017-06-24T15:20:47.319Z,9228
2017-06-24T15:22:02.986Z,10164
2017-06-24T15:23:18.238Z,12744
2017-06-24T15:24:35.153Z,18624
2017-06-24T15:25:52.181Z,21472
2017-06-24T15:27:09.394Z,21888
2017-06-24T15:28:26.448Z,19872
2017-06-24T15:29:43.490Z,18560
2017-06-24T15:30:59.635Z,19104
2017-06-24T15:32:16.603Z,20224
2017-06-24T15:33:33.150Z,18656
2017-06-24T15:34:49.741Z,18976
2017-06-24T15:36:06.042Z,19200
2017-06-24T15:37:22.791Z,17856
2017-06-24T15:38:39.699Z,17824
2017-06-24T15:39:56.764Z,19104
2017-06-24T15:41:12.144Z,18816
2017-06-24T15:42:29.170Z,20800
2017-06-24T15:43:45.617Z,18464
2017-06-24T15:45:02.603Z,17056
2017-06-24T15:46:19.495Z,16384
2017-06-24T15:47:36.390Z,16512
2017-06-24T15:48:52.463Z,14264
2017-06-24T15:50:09.010Z,13052
2017-06-24T15:51:25.143Z,12328
2017-06-24T15:52:41.818Z,11828
2017-06-24T15:55:26.548Z,11568
2017-06-24T15:56:42.938Z,10784
2017-06-24T15:57:59.783Z,8800
2017-06-24T15:59:15.948Z,8896
2017-06-24T16:00:30.744Z,9784
2017-06-24T16:01:46.861Z,9632
2017-06-24T16:03:02.742Z,8816
2017-06-24T16:04:19.139Z,8900
2017-06-24T16:05:36.884Z,8560
2017-06-24T16:06:52.974Z,10544
2017-06-24T16:08:09.739Z,12556
2017-06-24T16:09:26.454Z,10952
2017-06-24T16:10:42.447Z,11056
2017-06-24T16:11:59.206Z,11112
2017-06-24T16:13:15.569Z,10308
2017-06-24T16:14:31.392Z,9876
2017-06-24T16:15:46.883Z,9512
2017-06-24T16:17:00.998Z,9640
2017-06-24T16:18:16.696Z,8744
2017-06-24T16:19:32.094Z,7464
2017-06-24T16:20:46.449Z,6880
2017-06-24T16:22:02.166Z,6956
2017-06-24T16:23:17.853Z,7804
2017-06-24T16:24:32.013Z,9700
2017-06-24T16:25:47.499Z,11088
2017-06-24T16:27:03.357Z,12656
2017-06-24T16:28:20.926Z,12864
2017-06-24T16:29:37.143Z,12728
2017-06-24T16:30:53.751Z,12164
2017-06-24T16:32:09.398Z,11216
2017-06-24T16:33:24.837Z,9832
2017-06-24T16:34:38.961Z,9568
2017-06-24T16:35:54.397Z,9188
2017-06-24T16:37:09.991Z,9388
2017-06-24T16:38:25.721Z,9656
2017-06-24T16:39:41.145Z,9548
2017-06-24T16:40:56.613Z,10036
2017-06-24T16:42:12.056Z,10468
2017-06-24T16:43:27.796Z,11488
2017-06-24T16:44:43.136Z,11280
2017-06-24T16:46:29.527Z,10604
2017-06-24T16:47:44.961Z,11124
2017-06-24T16:49:00.656Z,10808
2017-06-24T16:50:14.756Z,10704
2017-06-24T16:51:29.185Z,10332
2017-06-24T16:52:44.801Z,10764
2017-06-24T16:54:00.494Z,11708
2017-06-24T16:55:15.855Z,10384
2017-06-24T16:56:31.377Z,10052
2017-06-24T16:57:46.780Z,10020
2017-06-24T16:59:02.140Z,9316
2017-06-24T17:00:17.853Z,8452
2017-06-24T17:01:33.268Z,7716
2017-06-24T17:02:48.690Z,6680
2017-06-24T17:04:04.673Z,6068
2017-06-24T17:05:20.158Z,5620
2017-06-24T17:06:35.258Z,5420
2017-06-24T17:07:49.443Z,4908
2017-06-24T17:09:05.148Z,4856
2017-06-24T17:10:20.573Z,4848
2017-06-24T17:11:34.752Z,4432
2017-06-24T17:12:50.367Z,4164
2017-06-24T17:14:19.658Z,4320
2017-06-24T17:15:35.215Z,4948
2017-06-24T17:16:50.913Z,5120
2017-06-24T17:18:06.365Z,5200
2017-06-24T17:19:21.767Z,4756
2017-06-24T17:20:37.205Z,4724
2017-06-24T17:21:52.638Z,5168
2017-06-24T17:23:08.134Z,4896
2017-06-24T17:24:23.851Z,4460
2017-06-24T17:25:39.297Z,4028
2017-06-24T17:26:54.837Z,3912
2017-06-24T17:28:10.264Z,4056
2017-06-24T17:29:25.578Z,4244
2017-06-24T17:30:40.969Z,4476
2017-06-24T17:31:56.486Z,4720
2017-06-24T17:33:11.914Z,4924
2017-06-24T17:34:27.642Z,5060
2017-06-24T17:35:43.119Z,5132
2017-06-24T17:36:58.714Z,5184
2017-06-24T17:38:14.322Z,5080
2017-06-24T17:39:29.998Z,5044
2017-06-24T17:40:45.122Z,5168
2017-06-24T17:42:00.506Z,5176
2017-06-24T17:43:15.936Z,4956
2017-06-24T17:44:30.192Z,4740
2017-06-24T17:45:45.650Z,4592
2017-06-24T17:47:01.061Z,4420
2017-06-24T17:48:16.498Z,4412
2017-06-24T17:49:32.258Z,4472
2017-06-24T17:50:48.070Z,4416
2017-06-24T17:52:03.515Z,4092
2017-06-24T17:53:17.665Z,3884
2017-06-24T17:54:31.931Z,3796
2017-06-24T17:55:47.405Z,3672
2017-06-24T17:57:02.925Z,3544
2017-06-24T17:58:23.806Z,3564
2017-06-24T17:59:47.189Z,3508
2017-06-24T18:01:09.401Z,3396
2017-06-24T18:02:31.074Z,3292
2017-06-24T18:03:52.993Z,3120
2017-06-24T18:05:16.394Z,2976
2017-06-24T18:06:38.193Z,2836
2017-06-24T18:08:00.129Z,2576
2017-06-24T18:09:21.955Z,2436
2017-06-24T18:10:45.673Z,2228
2017-06-24T18:12:06.301Z,2044
2017-06-24T18:13:21.772Z,2040
2017-06-24T18:14:37.435Z,1960
2017-06-24T18:15:53.086Z,1880
2017-06-24T18:17:08.535Z,1928
2017-06-24T18:18:24.134Z,1924
2017-06-24T18:19:39.588Z,1820
2017-06-24T18:20:55.252Z,1624
2017-06-24T18:22:10.693Z,1444
2017-06-24T18:23:26.205Z,1368
2017-06-24T18:24:41.671Z,1412
2017-06-24T18:25:57.411Z,1480
2017-06-24T18:27:12.876Z,1628
2017-06-24T18:28:28.269Z,1732
2017-06-24T18:29:43.678Z,1672
2017-06-24T18:30:59.582Z,1544
2017-06-24T18:32:14.994Z,1432
2017-06-24T18:33:29.316Z,1380
2017-06-24T18:34:44.827Z,1344
2017-06-24T18:36:00.603Z,1328
2017-06-24T18:37:16.258Z,1196
2017-06-24T18:38:31.726Z,1124
2017-06-24T18:39:47.172Z,1028
2017-06-24T18:41:02.925Z,980
2017-06-24T18:42:18.369Z,1004
2017-06-24T18:43:34.012Z,1088
2017-06-24T18:44:49.555Z,1196
2017-06-24T18:46:04.975Z,1252
2017-06-24T18:47:20.442Z,1248
2017-06-24T18:48:36.188Z,1252
2017-06-24T18:49:51.833Z,1308
2017-06-24T18:51:07.244Z,1364
2017-06-24T18:52:22.695Z,1424
2017-06-24T18:53:38.146Z,1440
2017-06-24T18:54:53.829Z,1420
2017-06-24T18:56:07.859Z,1376
2017-06-24T18:57:23.583Z,1320
2017-06-24T18:58:39.059Z,1244
2017-06-24T18:59:54.347Z,1176
2017-06-24T19:01:08.514Z,1132
2017-06-24T19:02:24.070Z,1100
2017-06-24T19:03:39.620Z,1040
2017-06-24T19:04:55.479Z,988
2017-06-24T19:06:10.986Z,944
2017-06-24T19:07:26.441Z,876
2017-06-24T19:08:41.858Z,796
2017-06-24T19:09:57.521Z,732
2017-06-24T19:11:12.990Z,688
2017-06-24T19:13:57.418Z,632
2017-06-24T19:15:13.273Z,608
2017-06-24T19:16:28.711Z,596
2017-06-24T19:17:44.161Z,592
2017-06-24T19:18:59.617Z,576
2017-06-24T19:20:15.313Z,560
2017-06-24T19:21:30.805Z,540
2017-06-24T19:22:46.699Z,520
2017-06-24T19:24:00.753Z,488
2017-06-24T19:25:16.639Z,448
2017-06-24T19:26:32.080Z,420
2017-06-24T19:27:47.511Z,400
2017-06-24T19:29:03.246Z,376
2017-06-24T19:30:17.668Z,356
2017-06-24T19:31:33.135Z,328
2017-06-24T19:32:48.540Z,304
2017-06-24T19:34:04.011Z,284
2017-06-24T19:35:19.706Z,264
2017-06-24T19:36:35.112Z,240
2017-06-24T19:37:51.005Z,220
2017-06-24T19:39:07.448Z,200
2017-06-24T19:40:24.535Z,184
2017-06-24T19:41:40.522Z,164
2017-06-24T19:42:57.443Z,148
2017-06-24T19:44:14.011Z,132
2017-06-24T19:45:30.819Z,116
2017-06-24T19:46:47.488Z,104
2017-06-24T19:48:02.517Z,92
2017-06-24T19:49:18.991Z,84
2017-06-24T19:50:36.120Z,76
2017-06-24T19:51:52.613Z,68
2017-06-24T19:53:22.063Z,60
2017-06-24T19:54:38.358Z,52
2017-06-24T19:55:54.497Z,48
2017-06-24T19:57:11.549Z,40
2017-06-24T19:58:28.209Z,36
2017-06-24T19:59:44.601Z,32
2017-06-24T20:01:01.461Z,28
2017-06-24T20:02:17.761Z,24
2017-06-24T20:03:33.610Z,20
2017-06-24T20:04:49.551Z,16
2017-06-24T20:06:06.355Z,16
2017-06-24T20:07:22.422Z,12
2017-06-24T20:08:38.864Z,12
2017-06-24T20:09:55.455Z,8
2017-06-24T20:11:12.301Z,12
2017-06-24T20:12:28.606Z,8
2017-06-24T20:13:45.089Z,4
2017-06-24T20:15:01.432Z,4
2017-06-24T20:16:17.691Z,4
2017-06-24T20:17:33.883Z,4
2017-06-24T20:18:49.962Z,4
2017-06-24T20:20:06.378Z,4
2017-06-24T20:21:23.079Z,4
2017-06-24T20:22:39.249Z,0
2017-06-24T20:23:55.254Z,0
2017-06-24T20:25:10.903Z,4
2017-06-24T20:26:27.250Z,4
2017-06-24T20:27:43.611Z,4
2017-06-24T20:28:59.225Z,0
2017-06-24T20:30:14.698Z,0
2017-06-24T20:31:30.426Z,0
2017-06-24T20:32:43.116Z,0
2017-06-24T20:33:58.541Z,0
2017-06-24T20:35:14.120Z,0
2017-06-24T20:36:29.865Z,0
2017-06-24T20:37:45.341Z,0
2017-06-24T20:39:00.771Z,0
2017-06-24T20:40:16.349Z,0
2017-06-24T20:41:32.087Z,0
2017-06-24T20:42:47.728Z,0
2017-06-24T20:44:03.099Z,0
2017-06-24T20:45:18.689Z,0
2017-06-24T20:46:34.380Z,0
2017-06-24T20:47:49.930Z,0
2017-06-24T20:49:05.664Z,0
2017-06-24T20:50:21.028Z,0
2017-06-24T20:51:37.017Z,0
2017-06-24T20:52:52.475Z,0
2017-06-24T20:54:07.915Z,0
2017-06-24T20:55:23.712Z,0
2017-06-24T20:56:39.434Z,0
2017-06-24T20:57:53.151Z,0
2017-06-24T20:59:08.644Z,0
2017-06-24T21:00:24.128Z,0
2017-06-24T21:01:39.791Z,0
2017-06-24T21:02:55.218Z,0
2017-06-24T21:04:10.608Z,0
2017-06-24T21:05:26.132Z,0
2017-06-24T21:06:41.791Z,0
2017-06-24T21:07:57.340Z,0
2017-06-24T21:09:12.776Z,0
2017-06-24T21:10:28.207Z,0
2017-06-24T21:11:43.963Z,0
2017-06-24T21:12:59.401Z,0
2017-06-24T21:14:14.896Z,0
2017-06-24T21:15:30.479Z,0
2017-06-24T21:16:46.384Z,0
2017-06-24T21:18:01.824Z,0
2017-06-24T21:19:17.251Z,0
2017-06-24T21:21:03.701Z,0
2017-06-24T21:22:19.375Z,0
2017-06-24T21:23:34.830Z,0
2017-06-24T21:25:02.544Z,0
2017-06-24T21:26:17.922Z,0
2017-06-24T21:27:33.648Z,0
2017-06-24T21:28:49.280Z,0
2017-06-24T21:30:04.735Z,0
2017-06-24T21:31:19.740Z,0
2017-06-24T21:32:35.834Z,0
2017-06-24T21:33:51.249Z,0
2017-06-24T21:35:06.658Z,0
2017-06-24T21:36:22.489Z,0
2017-06-24T21:37:38.180Z,0
2017-06-24T21:38:53.580Z,0
2017-06-24T21:40:09.281Z,0
2017-06-24T21:41:24.799Z,0
2017-06-24T21:42:40.697Z,0
2017-06-24T21:43:56.147Z,0
2017-06-24T21:45:10.121Z,0
2017-06-24T21:46:25.820Z,0
2017-06-24T21:47:41.508Z,0
2017-06-24T21:48:56.963Z,0
2017-06-24T21:50:12.452Z,0
2017-06-24T21:51:28.031Z,0
2017-06-24T21:52:43.787Z,0
2017-06-24T21:53:59.211Z,0
2017-06-24T21:55:14.631Z,0
2017-06-24T21:56:30.043Z,0
2017-06-24T21:57:44.455Z,0
2017-06-24T21:58:59.921Z,0
2017-06-24T22:00:15.341Z,0
2017-06-24T22:01:30.771Z,0
2017-06-24T22:02:46.481Z,0
2017-06-24T22:04:02.091Z,0
2017-06-24T22:05:17.573Z,0
2017-06-24T22:06:32.992Z,0
2017-06-24T22:07:48.872Z,0
2017-06-24T22:09:04.483Z,0
2017-06-24T22:10:18.459Z,0
2017-06-24T22:11:33.896Z,0
2017-06-24T22:12:49.581Z,0
2017-06-24T22:14:05.011Z,0
2017-06-24T22:15:20.451Z,0
2017-06-24T22:16:34.781Z,0
2017-06-24T22:17:50.461Z,0
2017-06-24T22:19:06.063Z,0
2017-06-24T22:20:21.498Z,0
2017-06-24T22:21:37.150Z,0
2017-06-24T22:22:52.832Z,0
2017-06-24T22:24:08.242Z,0
2017-06-24T22:25:23.690Z,0
2017-06-24T22:26:39.149Z,0
2017-06-24T22:27:54.794Z,0
2017-06-24T22:29:10.188Z,0
2017-06-24T22:30:25.585Z,0
2017-06-24T22:31:41.175Z,0
2017-06-24T22:32:55.537Z,0
2017-06-24T22:34:10.948Z,0
2017-06-24T22:35:26.464Z,0
2017-06-24T22:36:41.937Z,0
2017-06-24T22:37:57.580Z,0
2017-06-24T22:39:13.021Z,0
2017-06-24T22:40:28.454Z,0
2017-06-24T22:41:44.044Z,0
2017-06-24T22:42:59.744Z,0
2017-06-24T22:44:15.157Z,0
2017-06-24T22:45:30.606Z,0
2017-06-24T22:46:45.000Z,0
2017-06-24T22:48:00.746Z,0
2017-06-24T22:49:16.187Z,0
2017-06-24T22:50:31.608Z,0
2017-06-24T22:51:46.005Z,0
2017-06-24T22:53:01.726Z,0
2017-06-24T22:54:17.141Z,0
2017-06-24T22:55:32.597Z,0
2017-06-24T22:56:47.990Z,0
2017-06-24T22:58:03.709Z,0
2017-06-24T22:59:19.170Z,0
2017-06-24T23:00:34.548Z,0
2017-06-24T23:01:50.045Z,0
2017-06-24T23:03:05.750Z,0
2017-06-24T23:04:21.198Z,0
2017-06-24T23:05:36.685Z,0
2017-06-24T23:06:50.809Z,0
2017-06-24T23:08:06.679Z,0
2017-06-24T23:09:21.757Z,0
2017-06-24T23:10:37.169Z,0
2017-06-24T23:11:52.555Z,0
2017-06-24T23:13:06.959Z,0
2017-06-24T23:14:21.045Z,0
2017-06-24T23:15:36.586Z,0
2017-06-24T23:16:50.564Z,0
2017-06-24T23:18:06.213Z,0
2017-06-24T23:19:19.062Z,0
2017-06-24T23:20:33.223Z,0
2017-06-24T23:21:46.949Z,0
2017-06-24T23:23:01.337Z,0
2017-06-24T23:24:15.494Z,0
2017-06-24T23:25:30.578Z,0
2017-06-24T23:26:45.988Z,0
2017-06-24T23:28:01.633Z,0
2017-06-24T23:29:17.023Z,0
2017-06-24T23:30:32.425Z,0
2017-06-24T23:31:47.833Z,0
2017-06-24T23:33:00.644Z,0
2017-06-24T23:34:16.446Z,0
2017-06-24T23:35:32.064Z,0
2017-06-24T23:36:47.510Z,0
2017-06-24T23:38:02.895Z,0
2017-06-24T23:39:18.609Z,0
2017-06-24T23:40:33.994Z,0
2017-06-24T23:41:49.391Z,0
2017-06-24T23:43:05.021Z,0
2017-06-24T23:44:19.672Z,0
2017-06-24T23:45:35.313Z,0
2017-06-24T23:46:49.425Z,0
2017-06-24T23:48:04.802Z,0
2017-06-24T23:49:20.438Z,0
2017-06-24T23:50:35.906Z,0
2017-06-24T23:51:51.356Z,0
2017-06-24T23:53:06.431Z,0
2017-06-24T23:54:21.847Z,0
2017-06-24T23:55:37.378Z,0
2017-06-24T23:56:52.792Z,0
2017-06-24T23:58:08.233Z,0
2017-06-24T23:59:23.812Z,0
